KIPL/IPL METAR and TAF weather

Enter ICAO airport designator
Station Type Date Time Source
KIPL METAR 2020/07/09 23:53 UTC NOAA

KIPL 092353Z AUTO 11009KT 10SM SCT110 42/07 A2968 RMK AO2 SLP052 T04220072 10428 20361 56017


Station Type Date Time Source
KIPL Decoded METAR 2020/07/09 23:53 UTC NOAA

Imperial, Imperial County Airport, CA, United States (KIPL) 32-50-03N 115-34-43W -15M
Jul 09, 2020 - 07:53 PM EDT / 2020.07.09 2353 UTC
Wind: from the ESE (110 degrees) at 10 MPH (9 KT):0
Visibility: 10 mile(s):0
Sky conditions: partly cloudy
Temperature: 108.0 F (42.2 C)
Dew Point: 45.0 F (7.2 C)
Relative Humidity: 12%
Pressure (altimeter): 29.68 in. Hg (1005 hPa)
Pressure tendency: 0.05 inches (1.7 hPa) lower than three hours ago
ob: KIPL 092353Z AUTO 11009KT 10SM SCT110 42/07 A2968 RMK AO2 SLP052 T04220072 10428 20361 56017
cycle: 0

Station Type Date Time Source
KIPL TAF 2020/07/09 18:22 UTC NOAA

TAF KIPL 091720Z 0918/1018 12007KT P6SM SKC
FM100300 20007KT P6SM FEW250
FM100800 11005KT P6SM FEW250

Example: see airport list